Time;durP1;ratioP1;P1;durP2;ratioP2;P2;SDS_P1;SDS_P2;PMS_P1;PMS_P2;Temp;Humidity;BMP_temperature;BMP_pressure;BME280_temperature;BME280_humidity;BME280_pressure;Samples;Min_cycle;Max_cycle;Signal;HPM_P1;HPM_P2
2022/12/23 00:01:19;;;;;;;54.65;24.88;;;7.50;99.90;;;;;;5134002;28;20502;-75
2022/12/23 00:03:45;;;;;;;53.38;23.98;;;7.60;99.90;;;;;;5137102;27;20546;-75
2022/12/23 00:06:14;;;;;;;44.58;22.42;;;7.60;99.90;;;;;;5137735;27;20486;-75
2022/12/23 00:08:40;;;;;;;48.50;23.17;;;7.60;99.90;;;;;;5137576;27;20046;-76
2022/12/23 00:11:11;;;;;;;46.60;22.77;;;7.60;99.90;;;;;;5137884;27;20039;-76
2022/12/23 00:16:20;;;;;;;40.10;20.75;;;7.60;99.90;;;;;;5137518;27;20051;-75
2022/12/23 00:18:46;;;;;;;45.28;21.45;;;7.60;99.90;;;;;;5137391;27;20040;-75
2022/12/23 00:21:15;;;;;;;49.78;22.25;;;7.60;99.90;;;;;;5137536;27;20039;-76
2022/12/23 00:23:46;;;;;;;48.95;20.73;;;7.60;99.90;;;;;;5137318;27;20080;-76
2022/12/23 00:26:20;;;;;;;43.72;20.95;;;7.70;99.90;;;;;;5137549;27;20390;-76
2022/12/23 00:28:46;;;;;;;56.78;22.63;;;7.60;99.90;;;;;;5137293;27;20083;-76
2022/12/23 00:31:12;;;;;;;50.40;21.58;;;7.70;99.90;;;;;;5137178;27;20094;-76
2022/12/23 00:33:43;;;;;;;59.38;22.13;;;7.60;99.90;;;;;;5137201;27;20043;-76
2022/12/23 00:36:24;;;;;;;46.20;19.58;;;7.70;99.90;;;;;;5136889;27;20502;-76
2022/12/23 00:44:19;;;;;;;47.45;18.98;;;7.70;99.90;;;;;;5137036;27;20047;-75
2022/12/23 00:46:45;;;;;;;45.15;18.83;;;7.70;99.90;;;;;;5137242;27;20062;-76
2022/12/23 00:51:57;;;;;;;47.65;18.88;;;7.70;99.90;;;;;;5136870;27;20058;-76
2022/12/23 00:54:23;;;;;;;45.88;18.40;;;7.80;99.90;;;;;;5136788;27;20054;-76
2022/12/23 00:56:48;;;;;;;60.35;33.75;;;7.80;99.90;;;;;;5118494;27;20039;-76
2022/12/23 00:59:14;;;;;;;75.03;19.00;;;7.80;99.90;;;;;;5136784;27;20115;-76
2022/12/23 01:07:09;;;;;;;41.72;17.13;;;7.90;99.90;;;;;;5136557;27;20479;-75
2022/12/23 01:09:35;;;;;;;40.43;18.77;;;7.80;99.90;;;;;;5136591;27;20043;-76
2022/12/23 01:12:00;;;;;;;44.20;17.70;;;7.80;99.90;;;;;;5136453;27;20046;-76
2022/12/23 01:14:27;;;;;;;39.67;16.98;;;7.80;99.90;;;;;;5135906;27;20046;-75
2022/12/23 01:16:52;;;;;;;38.33;17.03;;;7.90;99.90;;;;;;5136463;27;20460;-75
2022/12/23 01:19:18;;;;;;;41.63;18.23;;;7.80;99.90;;;;;;5136369;27;20051;-75
2022/12/23 01:21:44;;;;;;;39.80;17.08;;;7.80;99.90;;;;;;5136283;27;20501;-76
2022/12/23 01:24:09;;;;;;;56.17;31.58;;;7.90;99.90;;;;;;5136216;27;20043;-75
2022/12/23 01:26:35;;;;;;;33.35;16.13;;;7.80;99.90;;;;;;5136416;27;20441;-75
2022/12/23 01:29:00;;;;;;;41.55;25.38;;;7.90;99.90;;;;;;5136025;27;20463;-76
2022/12/23 01:31:27;;;;;;;31.45;14.60;;;7.70;99.90;;;;;;5136168;27;20038;-75
2022/12/23 01:33:53;;;;;;;26.38;13.38;;;7.90;99.90;;;;;;5136495;27;20129;-75
2022/12/23 01:36:20;;;;;;;24.93;11.77;;;7.90;99.90;;;;;;5135982;27;20039;-75
2022/12/23 01:38:46;;;;;;;25.73;12.13;;;7.80;99.90;;;;;;5135934;27;20047;-76
2022/12/23 01:42:42;;;;;;;26.30;13.15;;;8.10;99.90;;;;;;5136019;27;20129;-75
2022/12/23 01:44:41;;;;;;;24.08;11.60;;;8.00;99.90;;;;;;5135298;27;20054;-76
2022/12/23 01:47:11;;;;;;;25.05;12.32;;;7.90;99.90;;;;;;5135651;27;20061;-75
2022/12/23 01:49:38;;;;;;;25.40;11.98;;;7.90;99.90;;;;;;5135638;27;20039;-75
2022/12/23 01:52:04;;;;;;;21.98;10.80;;;7.90;99.90;;;;;;5135708;27;20121;-75
2022/12/23 01:54:30;;;;;;;28.58;12.65;;;8.70;99.90;;;;;;5135626;27;20126;-75
2022/12/23 01:56:56;;;;;;;24.75;12.68;;;7.90;99.90;;;;;;5135578;27;20126;-75
2022/12/23 02:04:51;;;;;;;26.08;12.43;;;7.90;99.90;;;;;;5135505;27;20051;-75
2022/12/23 02:10:03;;;;;;;28.73;14.45;;;7.90;99.90;;;;;;5135800;27;20406;-76
2022/12/23 02:12:49;;;;;;;28.10;13.05;;;8.30;99.90;;;;;;5135222;27;20047;-75
2022/12/23 02:18:25;;;;;;;38.47;17.38;;;7.90;99.90;;;;;;5135123;27;20080;-75
2022/12/23 02:21:27;;;;;;;49.95;18.40;;;7.90;99.90;;;;;;5135260;27;20043;-75
2022/12/23 02:24:05;;;;;;;37.00;18.50;;;7.90;99.90;;;;;;5135085;27;20078;-75
2022/12/23 02:26:48;;;;;;;47.58;20.33;;;7.80;99.90;;;;;;5134142;27;20118;-75
2022/12/23 02:29:35;;;;;;;38.95;19.70;;;7.90;99.90;;;;;;5135015;27;20383;-75
2022/12/23 02:32:13;;;;;;;44.38;20.27;;;7.80;99.90;;;;;;5135034;27;20447;-76
2022/12/23 02:34:55;;;;;;;40.50;19.48;;;7.80;99.90;;;;;;5135624;27;20374;-75
2022/12/23 02:37:39;;;;;;;43.70;20.90;;;7.80;99.90;;;;;;5134793;27;20051;-75
2022/12/23 02:40:11;;;;;;;39.08;19.77;;;7.80;99.90;;;;;;5134936;27;20117;-76
2022/12/23 02:42:49;;;;;;;40.88;19.60;;;7.70;99.90;;;;;;5135236;27;20039;-76
2022/12/23 02:45:22;;;;;;;;;;;7.70;99.90;;;;;;5135175;27;20053;-75
2022/12/23 02:47:58;;;;;;;38.47;18.77;;;7.70;99.90;;;;;;5135106;27;20019;-75
2022/12/23 02:50:29;;;;;;;31.95;17.35;;;7.80;99.90;;;;;;5134740;27;20462;-75
2022/12/23 02:52:59;;;;;;;35.53;19.05;;;7.70;99.90;;;;;;5134643;27;20128;-75
2022/12/23 02:55:29;;;;;;;45.08;18.95;;;7.70;99.90;;;;;;5134822;27;20054;-75
2022/12/23 02:57:59;;;;;;;40.60;18.80;;;7.70;99.90;;;;;;5134959;27;20103;-75
2022/12/23 03:00:25;;;;;;;38.33;18.92;;;7.60;99.90;;;;;;5134652;27;20035;-76
2022/12/23 03:02:50;;;;;;;44.00;19.33;;;7.60;99.90;;;;;;5134815;27;20483;-76
2022/12/23 03:05:32;;;;;;;41.80;19.85;;;7.60;99.90;;;;;;5134404;27;20043;-76
2022/12/23 03:08:02;;;;;;;40.60;19.95;;;7.60;99.90;;;;;;5134302;27;20057;-75
2022/12/23 03:10:57;;;;;;;36.75;19.80;;;7.70;99.90;;;;;;5134242;28;20047;-75
2022/12/23 03:13:40;;;;;;;39.30;19.25;;;7.60;99.90;;;;;;5123155;28;20066;-75
2022/12/23 03:16:06;;;;;;;45.63;20.25;;;7.50;99.90;;;;;;5134292;28;20054;-76
2022/12/23 03:18:55;;;;;;;37.88;18.75;;;7.50;99.90;;;;;;5134484;28;20035;-76
2022/12/23 03:21:36;;;;;;;39.47;18.42;;;7.50;99.90;;;;;;5134096;28;20595;-76
2022/12/23 03:24:01;;;;;;;44.53;20.33;;;7.50;99.90;;;;;;5134298;28;20083;-75
2022/12/23 03:26:41;;;;;;;38.65;18.42;;;7.50;99.90;;;;;;5134212;28;20135;-75
2022/12/23 03:29:31;;;;;;;40.17;18.85;;;7.50;99.90;;;;;;5134145;28;20079;-75
2022/12/23 03:32:00;;;;;;;35.50;17.45;;;7.50;99.90;;;;;;5134257;28;20050;-76
2022/12/23 03:34:31;;;;;;;42.15;19.52;;;7.50;99.90;;;;;;5133797;28;20372;-75
2022/12/23 03:37:00;;;;;;;38.17;17.38;;;7.50;99.90;;;;;;5134934;27;20390;-75
2022/12/23 03:39:35;;;;;;;40.33;18.65;;;8.00;99.90;;;;;;5138044;27;20487;-75
2022/12/23 03:42:08;;;;;;;36.47;17.98;;;7.40;99.90;;;;;;5138254;27;20092;-76
2022/12/23 03:44:41;;;;;;;41.13;18.00;;;7.50;99.90;;;;;;5138205;27;20404;-75
2022/12/23 03:47:12;;;;;;;41.20;18.80;;;7.50;99.90;;;;;;5119741;27;20395;-75
2022/12/23 03:49:46;;;;;;;36.60;17.88;;;7.50;99.90;;;;;;5137969;27;20050;-76
2022/12/23 03:52:19;;;;;;;33.85;17.20;;;7.50;99.90;;;;;;5138013;27;20047;-75
2022/12/23 03:54:53;;;;;;;36.97;16.80;;;7.40;99.90;;;;;;5137993;27;20084;-76
2022/12/23 03:57:21;;;;;;;36.35;17.10;;;7.40;99.90;;;;;;5137719;27;20483;-76
2022/12/23 03:59:52;;;;;;;35.85;17.08;;;7.40;99.90;;;;;;5137674;27;20156;-75
2022/12/23 04:02:43;;;;;;;41.47;17.65;;;7.40;99.90;;;;;;5137743;27;20047;-76
2022/12/23 04:05:24;;;;;;;40.22;17.67;;;7.40;99.90;;;;;;5137809;27;20043;-76
2022/12/23 04:07:55;;;;;;;36.85;16.67;;;7.40;99.90;;;;;;5137755;27;20122;-75
2022/12/23 04:10:22;;;;;;;38.70;17.48;;;7.40;99.90;;;;;;5137638;27;20047;-75
2022/12/23 04:12:48;;;;;;;42.83;18.48;;;7.40;99.90;;;;;;5137335;27;20054;-76
2022/12/23 04:15:19;;;;;;;37.77;16.93;;;7.40;99.90;;;;;;5137602;27;20108;-76
2022/12/23 04:17:45;;;;;;;36.42;15.88;;;7.40;99.90;;;;;;5137618;27;20273;-76
2022/12/23 04:20:10;;;;;;;41.53;17.02;;;7.70;99.90;;;;;;5137435;27;20039;-75
2022/12/23 04:22:36;;;;;;;41.08;17.10;;;7.30;99.90;;;;;;5119318;27;20126;-75
2022/12/23 04:25:02;;;;;;;40.85;17.55;;;7.30;99.90;;;;;;5137321;27;20107;-76
2022/12/23 04:27:27;;;;;;;38.83;16.38;;;7.40;99.90;;;;;;5137375;27;20062;-75
2022/12/23 04:29:53;;;;;;;49.10;18.05;;;7.30;99.90;;;;;;5137295;27;20049;-75
2022/12/23 04:32:18;;;;;;;44.78;18.50;;;7.30;99.90;;;;;;5137285;27;20051;-75
2022/12/23 04:34:44;;;;;;;62.13;32.55;;;7.30;99.90;;;;;;5136900;27;20043;-75
2022/12/23 04:37:10;;;;;;;48.60;18.05;;;8.00;99.90;;;;;;5137433;27;20047;-75
2022/12/23 04:39:35;;;;;;;62.78;19.35;;;7.40;99.90;;;;;;5137160;27;20505;-75
2022/12/23 04:42:01;;;;;;;154.23;42.25;;;7.40;99.90;;;;;;5137114;27;20073;-76
2022/12/23 04:44:26;;;;;;;53.00;18.08;;;8.10;99.90;;;;;;5136422;27;20095;-76
2022/12/23 04:46:52;;;;;;;60.65;18.92;;;7.40;99.90;;;;;;5137058;27;20051;-75
2022/12/23 04:49:17;;;;;;;51.95;17.50;;;8.10;99.90;;;;;;5135952;27;20100;-76
2022/12/23 04:51:43;;;;;;;67.40;20.13;;;7.30;99.90;;;;;;5136897;27;20043;-75
2022/12/23 04:54:09;;;;;;;162.90;41.20;;;7.30;99.90;;;;;;5136912;27;20386;-75
2022/12/23 04:56:34;;;;;;;50.25;17.20;;;7.80;99.90;;;;;;5136688;27;20096;-76
2022/12/23 04:59:01;;;;;;;54.20;20.80;;;7.30;99.90;;;;;;5136768;27;20035;-76
2022/12/23 05:01:26;;;;;;;53.42;16.33;;;7.30;99.90;;;;;;5119136;27;20166;-76
2022/12/23 05:03:53;;;;;;;49.80;17.60;;;7.30;99.90;;;;;;5136733;27;20395;-75
2022/12/23 05:06:18;;;;;;;50.67;17.92;;;7.40;99.90;;;;;;5136770;27;20031;-76
2022/12/23 05:08:44;;;;;;;124.75;37.30;;;7.30;99.90;;;;;;5136557;27;20088;-76
2022/12/23 05:11:09;;;;;;;58.00;19.83;;;7.40;99.90;;;;;;5136477;27;20103;-76
2022/12/23 05:13:35;;;;;;;51.20;17.52;;;7.30;99.90;;;;;;5136980;27;20043;-76
2022/12/23 05:16:01;;;;;;;57.20;16.73;;;7.30;99.90;;;;;;5136832;27;20031;-76
2022/12/23 05:18:27;;;;;;;46.78;18.00;;;7.30;99.90;;;;;;5136715;27;20399;-75
2022/12/23 05:20:52;;;;;;;53.13;16.98;;;7.30;99.90;;;;;;5136380;27;20463;-76
2022/12/23 05:23:18;;;;;;;49.00;16.30;;;7.40;99.90;;;;;;5136338;27;20046;-75
2022/12/23 05:25:51;;;;;;;42.20;15.00;;;7.40;99.90;;;;;;5136251;27;20039;-75
2022/12/23 05:28:17;;;;;;;41.90;15.88;;;7.80;99.90;;;;;;5136264;27;20070;-76
2022/12/23 05:30:43;;;;;;;44.47;16.60;;;7.90;99.90;;;;;;5136138;27;20116;-76
2022/12/23 05:33:08;;;;;;;42.15;14.82;;;7.70;99.90;;;;;;5136109;27;20039;-75
2022/12/23 05:35:34;;;;;;;65.97;29.80;;;7.40;99.90;;;;;;5136047;27;20058;-76
2022/12/23 05:38:02;;;;;;;41.95;16.25;;;7.30;99.90;;;;;;5136078;27;20043;-75
2022/12/23 05:40:28;;;;;;;37.40;13.73;;;7.30;99.90;;;;;;5135817;27;20112;-76
2022/12/23 05:42:53;;;;;;;49.35;15.98;;;7.40;99.90;;;;;;5135873;27;20428;-76
2022/12/23 05:45:19;;;;;;;42.65;15.20;;;7.30;99.90;;;;;;5135647;27;20035;-75
2022/12/23 05:47:45;;;;;;;48.28;12.85;;;7.80;99.90;;;;;;5135613;27;20054;-75
2022/12/23 05:50:11;;;;;;;113.13;14.35;;;7.30;99.90;;;;;;5135836;27;20491;-76
2022/12/23 05:52:37;;;;;;;131.18;28.48;;;7.40;99.90;;;;;;5135855;27;20042;-75
2022/12/23 05:55:04;;;;;;;121.23;15.43;;;7.30;99.90;;;;;;5135628;27;20082;-75
2022/12/23 05:57:31;;;;;;;55.80;12.25;;;7.30;99.90;;;;;;5135592;27;20273;-73
2022/12/23 05:59:57;;;;;;;;;;;7.30;99.90;;;;;;5136449;27;20051;-74
2022/12/23 06:02:23;;;;;;;52.28;13.75;;;7.30;99.90;;;;;;5135510;27;19919;-75
2022/12/23 06:04:48;;;;;;;50.83;13.13;;;7.30;99.90;;;;;;5135441;27;20043;-75
2022/12/23 06:07:14;;;;;;;87.25;15.52;;;7.30;99.90;;;;;;5117174;27;20046;-74
2022/12/23 06:09:40;;;;;;;42.72;13.98;;;7.30;99.90;;;;;;5135279;27;20394;-74
2022/12/23 06:12:06;;;;;;;57.33;25.45;;;7.30;99.90;;;;;;5135377;27;20050;-73
2022/12/23 06:14:31;;;;;;;45.88;14.38;;;7.30;99.90;;;;;;5135270;27;20043;-74
2022/12/23 06:16:57;;;;;;;44.10;13.80;;;7.30;99.90;;;;;;5135269;27;20043;-74
2022/12/23 06:19:23;;;;;;;59.10;22.48;;;7.30;99.90;;;;;;5135181;27;20391;-75
2022/12/23 06:21:49;;;;;;;56.25;15.40;;;7.30;99.90;;;;;;5135262;27;20043;-75
2022/12/23 06:24:14;;;;;;;50.13;13.60;;;7.30;99.90;;;;;;5135077;27;20104;-74
2022/12/23 06:26:41;;;;;;;57.50;14.02;;;7.30;99.90;;;;;;5135312;27;20047;-75
2022/12/23 06:29:07;;;;;;;51.63;12.43;;;7.30;99.90;;;;;;5134878;27;20391;-75
2022/12/23 06:31:32;;;;;;;40.25;12.93;;;8.10;99.90;;;;;;5134844;27;20035;-75
2022/12/23 06:33:58;;;;;;;64.03;25.30;;;8.10;99.90;;;;;;5116722;27;20099;-74
2022/12/23 06:36:25;;;;;;;42.72;13.20;;;8.00;99.90;;;;;;5134979;27;20475;-75
2022/12/23 06:38:51;;;;;;;47.53;13.32;;;7.30;99.90;;;;;;5134803;27;20043;-75
2022/12/23 06:41:17;;;;;;;35.42;12.75;;;7.50;99.90;;;;;;5134830;27;20091;-76
2022/12/23 06:43:42;;;;;;;84.82;23.15;;;7.30;99.90;;;;;;5135175;27;20487;-75
2022/12/23 06:46:08;;;;;;;58.15;12.35;;;7.50;99.90;;;;;;5134497;27;20507;-77
2022/12/23 06:48:34;;;;;;;34.95;12.93;;;7.30;99.90;;;;;;5134927;27;20047;-76
2022/12/23 06:50:59;;;;;;;47.30;12.52;;;7.30;99.90;;;;;;5134650;27;20039;-75
2022/12/23 06:53:25;;;;;;;84.75;13.68;;;7.30;99.90;;;;;;5134608;27;20039;-76
2022/12/23 06:56:01;;;;;;;72.40;23.90;;;7.30;99.90;;;;;;5116318;27;20047;-75
2022/12/23 06:58:27;;;;;;;43.42;12.13;;;7.30;99.90;;;;;;5135076;27;20035;-76
2022/12/23 07:00:52;;;;;;;48.20;13.02;;;7.30;99.90;;;;;;5134519;27;20467;-76
2022/12/23 07:03:18;;;;;;;79.68;21.20;;;7.30;99.90;;;;;;5134678;27;20043;-77
2022/12/23 07:05:50;;;;;;;35.03;11.30;;;7.40;99.90;;;;;;5116245;27;20127;-76
2022/12/23 07:08:16;;;;;;;50.03;12.43;;;7.30;99.90;;;;;;5134332;27;20043;-76
2022/12/23 07:10:42;;;;;;;37.08;10.82;;;7.30;99.90;;;;;;5134358;28;20387;-77
2022/12/23 07:13:08;;;;;;;44.25;12.30;;;7.30;99.90;;;;;;5133870;27;20047;-76
2022/12/23 07:15:34;;;;;;;51.70;14.02;;;7.30;99.90;;;;;;5116192;28;20043;-77
2022/12/23 07:18:00;;;;;;;48.45;12.95;;;7.40;99.90;;;;;;5134531;28;20039;-75
2022/12/23 07:20:25;;;;;;;46.63;12.45;;;7.30;99.90;;;;;;5134431;28;20102;-75
2022/12/23 07:22:53;;;;;;;74.68;23.00;;;7.30;99.90;;;;;;5134463;28;20058;-75
2022/12/23 07:25:19;;;;;;;32.85;11.68;;;7.30;99.90;;;;;;5134347;28;20085;-77
2022/12/23 07:27:44;;;;;;;90.93;12.88;;;7.30;99.90;;;;;;5134778;28;20096;-76
2022/12/23 07:30:10;;;;;;;79.43;23.17;;;7.80;99.90;;;;;;5134361;28;20045;-76
2022/12/23 07:32:36;;;;;;;65.90;13.70;;;7.30;99.90;;;;;;5134262;28;20045;-76
2022/12/23 07:35:02;;;;;;;65.22;13.55;;;7.30;99.90;;;;;;5134176;28;20171;-76
2022/12/23 07:37:27;;;;;;;121.65;26.08;;;7.30;99.90;;;;;;5134077;28;20043;-78
2022/12/23 07:39:53;;;;;;;58.65;13.70;;;7.20;99.90;;;;;;5134068;28;20455;-74
2022/12/23 07:42:18;;;;;;;73.15;14.00;;;7.80;99.90;;;;;;5134045;28;20047;-76
2022/12/23 07:44:44;;;;;;;40.58;13.15;;;7.40;99.90;;;;;;5134173;28;20129;-75
2022/12/23 07:47:10;;;;;;;101.13;26.60;;;7.20;99.90;;;;;;5133835;28;20055;-77
2022/12/23 07:49:35;;;;;;;63.67;15.02;;;7.20;99.90;;;;;;5133701;28;20050;-75
2022/12/23 07:52:01;;;;;;;30.42;12.05;;;7.60;99.90;;;;;;5133715;28;20570;-76
2022/12/23 07:54:26;;;;;;;46.90;12.98;;;7.50;99.90;;;;;;5116367;28;20043;-75
2022/12/23 07:56:52;;;;;;;50.45;18.85;;;7.20;99.90;;;;;;5133974;28;20044;-77
2022/12/23 07:59:17;;;;;;;44.22;13.15;;;7.40;99.90;;;;;;5134025;28;20043;-75
2022/12/23 08:01:43;;;;;;;53.97;20.63;;;7.20;99.90;;;;;;5134328;28;20035;-76
2022/12/23 08:04:09;;;;;;;47.08;11.52;;;7.20;99.90;;;;;;5133844;28;20096;-74
2022/12/23 08:06:35;;;;;;;53.55;13.52;;;7.20;99.90;;;;;;5132491;28;20054;-76
2022/12/23 08:09:01;;;;;;;46.80;12.65;;;7.30;99.90;;;;;;5131434;28;20054;-77
2022/12/23 08:11:27;;;;;;;31.73;11.88;;;7.20;99.90;;;;;;5131950;28;20039;-76
2022/12/23 08:13:52;;;;;;;27.17;10.68;;;7.30;99.90;;;;;;5133216;28;20043;-75
2022/12/23 08:16:18;;;;;;;67.65;22.40;;;7.20;99.90;;;;;;5133638;28;20107;-77
2022/12/23 08:18:44;;;;;;;60.38;14.90;;;7.20;99.90;;;;;;5133589;28;20062;-77
2022/12/23 08:21:15;;;;;;;30.40;11.52;;;7.70;99.90;;;;;;5132515;28;20040;-76
2022/12/23 08:23:42;;;;;;;40.97;11.77;;;7.30;99.90;;;;;;5133751;27;20047;-76
2022/12/23 08:26:14;;;;;;;42.53;11.93;;;7.20;99.90;;;;;;5119216;27;20055;-78
2022/12/23 08:28:41;;;;;;;52.47;12.63;;;7.20;99.90;;;;;;5136986;27;20074;-75
2022/12/23 08:31:10;;;;;;;60.15;14.50;;;7.20;99.90;;;;;;5136169;27;20114;-76
2022/12/23 08:33:37;;;;;;;49.53;12.90;;;7.20;99.90;;;;;;5136963;27;20505;-76
2022/12/23 08:36:03;;;;;;;;;;;7.60;99.90;;;;;;5137238;27;20039;-77
2022/12/23 08:38:29;;;;;;;29.38;10.52;;;7.20;99.90;;;;;;5136991;27;19919;-77
2022/12/23 08:40:55;;;;;;;40.30;13.10;;;7.20;99.90;;;;;;5136593;27;20047;-75
2022/12/23 08:43:20;;;;;;;43.35;12.23;;;7.30;99.90;;;;;;5137013;27;20071;-75
2022/12/23 08:45:46;;;;;;;35.03;11.25;;;7.50;99.90;;;;;;5136820;27;20073;-76
2022/12/23 08:48:12;;;;;;;44.75;11.25;;;7.30;99.90;;;;;;5136742;27;20502;-75
2022/12/23 08:50:43;;;;;;;48.13;12.77;;;7.60;99.90;;;;;;5136252;27;20093;-75
2022/12/23 08:53:10;;;;;;;26.17;10.13;;;7.30;99.90;;;;;;5136897;27;20047;-75
2022/12/23 08:55:46;;;;;;;32.13;11.40;;;7.30;99.90;;;;;;5137152;27;20055;-77
2022/12/23 08:58:13;;;;;;;30.42;11.77;;;7.30;99.90;;;;;;5136841;27;20043;-76
2022/12/23 09:00:38;;;;;;;35.05;10.57;;;7.30;99.90;;;;;;5136029;27;20494;-76
2022/12/23 09:03:05;;;;;;;30.75;11.73;;;7.60;99.90;;;;;;5136644;27;20046;-76
2022/12/23 09:05:30;;;;;;;29.40;11.07;;;7.80;99.90;;;;;;5136305;27;20050;-76
2022/12/23 09:07:56;;;;;;;49.53;18.55;;;7.30;99.90;;;;;;5136513;27;20047;-75
2022/12/23 09:10:22;;;;;;;44.28;10.35;;;7.30;99.90;;;;;;5136161;27;20039;-75
2022/12/23 09:12:48;;;;;;;29.75;10.32;;;7.30;99.90;;;;;;5117926;27;20144;-75
2022/12/23 09:15:14;;;;;;;34.75;10.43;;;7.50;99.90;;;;;;5136397;27;20047;-75
2022/12/23 09:17:40;;;;;;;29.08;10.20;;;7.30;99.90;;;;;;5136507;27;20126;-76
2022/12/23 09:20:06;;;;;;;45.22;19.45;;;7.30;99.90;;;;;;5135802;27;20046;-75
2022/12/23 09:22:32;;;;;;;22.17;9.63;;;7.30;99.90;;;;;;5135990;27;20092;-75
2022/12/23 09:24:58;;;;;;;40.80;10.77;;;7.30;99.90;;;;;;5135457;27;20310;-75
2022/12/23 09:27:24;;;;;;;33.78;18.02;;;7.30;99.90;;;;;;5135865;27;20043;-76
2022/12/23 09:29:49;;;;;;;29.92;10.32;;;7.30;99.90;;;;;;5117505;27;20046;-74
2022/12/23 09:32:15;;;;;;;28.30;10.52;;;7.30;99.90;;;;;;5135586;27;20111;-76
2022/12/23 09:34:41;;;;;;;35.80;18.42;;;7.30;99.90;;;;;;5135470;27;20390;-77
2022/12/23 09:37:07;;;;;;;24.95;10.10;;;8.00;99.90;;;;;;5117756;27;20096;-75
2022/12/23 09:39:32;;;;;;;27.13;9.95;;;7.30;99.90;;;;;;5135948;27;20039;-75
2022/12/23 09:42:24;;;;;;;35.08;15.32;;;7.40;99.90;;;;;;5135389;27;20048;-75
2022/12/23 09:45:32;;;;;;;21.92;9.35;;;7.40;99.90;;;;;;5135542;27;20090;-75
2022/12/23 09:47:58;;;;;;;20.70;9.43;;;7.40;99.90;;;;;;5135983;27;20055;-75
2022/12/23 09:50:29;;;;;;;22.63;10.13;;;7.50;99.90;;;;;;5135269;27;20539;-76
2022/12/23 09:53:02;;;;;;;21.15;10.07;;;7.50;99.90;;;;;;5135245;27;20043;-75
2022/12/23 09:55:39;;;;;;;28.27;16.13;;;7.50;99.90;;;;;;5135383;27;20043;-75
2022/12/23 09:58:21;;;;;;;19.95;8.95;;;8.20;99.90;;;;;;5135494;27;20039;-75
2022/12/23 10:01:16;;;;;;;22.30;9.68;;;7.60;99.90;;;;;;5135314;27;20074;-75
2022/12/23 10:04:27;;;;;;;23.30;10.02;;;7.90;99.90;;;;;;5082698;27;20495;-75
2022/12/23 10:07:04;;;;;;;21.98;10.00;;;7.60;99.90;;;;;;5135515;27;20437;-75
2022/12/23 10:09:37;;;;;;;22.63;9.77;;;7.60;99.90;;;;;;5133685;27;20050;-75
2022/12/23 10:12:13;;;;;;;20.58;10.00;;;7.60;99.90;;;;;;5135145;27;20057;-77
2022/12/23 10:14:40;;;;;;;21.30;9.77;;;7.60;99.90;;;;;;5136098;27;20128;-75
2022/12/23 10:17:24;;;;;;;;;;;8.10;99.90;;;;;;5135742;27;20054;-75
2022/12/23 10:19:51;;;;;;;21.75;9.55;;;7.60;99.90;;;;;;5135104;27;19919;-75
2022/12/23 10:22:24;;;;;;;30.73;10.88;;;7.70;99.90;;;;;;5135131;27;20495;-74
2022/12/23 10:24:52;;;;;;;23.45;9.18;;;7.70;99.90;;;;;;5135005;27;20436;-75
2022/12/23 10:27:24;;;;;;;22.77;9.88;;;7.70;99.90;;;;;;5135529;27;20513;-75
2022/12/23 10:29:50;;;;;;;24.20;10.75;;;8.20;99.90;;;;;;5135354;27;20051;-75
2022/12/23 10:32:36;;;;;;;20.35;9.70;;;7.70;99.90;;;;;;5135197;27;20047;-75
2022/12/23 10:35:14;;;;;;;18.45;8.35;;;7.70;99.90;;;;;;5135031;27;20069;-75
2022/12/23 10:37:49;;;;;;;19.55;8.65;;;7.70;99.90;;;;;;5135004;27;20039;-75
2022/12/23 10:40:24;;;;;;;27.67;9.95;;;7.70;99.90;;;;;;5134985;27;20047;-75
2022/12/23 10:43:15;;;;;;;22.75;8.43;;;7.60;99.90;;;;;;5134910;27;20039;-75
2022/12/23 10:45:44;;;;;;;21.52;8.82;;;7.60;99.90;;;;;;5134655;27;20035;-75
2022/12/23 10:48:18;;;;;;;20.20;9.30;;;7.60;99.90;;;;;;5134052;27;20047;-75
2022/12/23 10:51:24;;;;;;;23.08;9.57;;;7.60;99.90;;;;;;5134750;27;20066;-75
2022/12/23 10:53:55;;;;;;;21.65;9.52;;;7.70;99.90;;;;;;5031340;28;20129;-75
2022/12/23 10:56:20;;;;;;;22.17;9.50;;;7.70;99.90;;;;;;5120414;27;20051;-75
2022/12/23 10:58:51;;;;;;;18.60;9.20;;;7.80;99.90;;;;;;5134928;27;20347;-75
2022/12/23 11:01:18;;;;;;;24.55;10.25;;;7.80;99.90;;;;;;5134632;27;20126;-75
2022/12/23 11:04:06;;;;;;;19.15;8.77;;;7.80;99.90;;;;;;5134643;27;20069;-75
2022/12/23 11:06:37;;;;;;;19.33;9.25;;;7.80;99.90;;;;;;5116416;27;20039;-77
2022/12/23 11:09:09;;;;;;;25.05;9.85;;;7.80;99.90;;;;;;5135004;27;20454;-75
2022/12/23 11:11:59;;;;;;;19.88;9.52;;;7.80;99.90;;;;;;5134636;27;20047;-75
2022/12/23 11:14:49;;;;;;;22.40;11.00;;;7.90;99.90;;;;;;5134108;28;20050;-74
2022/12/23 11:17:30;;;;;;;19.73;9.80;;;8.10;99.90;;;;;;5134741;28;20054;-74
2022/12/23 11:20:17;;;;;;;25.17;10.93;;;7.90;99.90;;;;;;5134516;28;20380;-79
2022/12/23 11:22:51;;;;;;;24.40;11.55;;;7.90;99.90;;;;;;5134507;28;20050;-76
2022/12/23 11:25:33;;;;;;;24.95;10.57;;;7.90;99.90;;;;;;5134275;28;20061;-76
2022/12/23 11:28:01;;;;;;;24.13;10.98;;;8.20;99.90;;;;;;5134240;28;20489;-77
2022/12/23 11:30:30;;;;;;;26.35;11.90;;;8.00;99.90;;;;;;5134145;28;20036;-73
2022/12/23 11:32:56;;;;;;;23.83;11.07;;;8.00;99.90;;;;;;5134196;28;20074;-75
2022/12/23 11:35:29;;;;;;;20.80;10.15;;;8.00;99.90;;;;;;5134215;28;20104;-73
2022/12/23 11:37:57;;;;;;;19.67;9.77;;;8.00;99.90;;;;;;5134127;28;20103;-74
2022/12/23 11:40:28;;;;;;;22.80;10.45;;;8.00;99.90;;;;;;5134193;28;20122;-73
2022/12/23 11:42:57;;;;;;;26.33;10.85;;;8.00;99.90;;;;;;5134253;28;20035;-73
2022/12/23 11:45:27;;;;;;;25.05;11.02;;;8.00;99.90;;;;;;5133949;28;20435;-75
2022/12/23 11:47:52;;;;;;;31.98;14.35;;;8.00;99.90;;;;;;5134353;28;20061;-75
2022/12/23 11:50:36;;;;;;;40.40;15.57;;;8.10;99.90;;;;;;5134032;28;20035;-79
2022/12/23 11:53:31;;;;;;;38.45;14.98;;;8.10;99.90;;;;;;5133789;28;20534;-75
2022/12/23 11:55:59;;;;;;;43.90;17.17;;;8.10;99.90;;;;;;5112288;28;20589;-75
2022/12/23 11:58:26;;;;;;;41.10;16.35;;;8.20;99.90;;;;;;5135355;27;20043;-75
2022/12/23 12:00:58;;;;;;;31.83;12.48;;;8.10;99.90;;;;;;5137626;27;20069;-77
2022/12/23 12:03:30;;;;;;;30.83;12.18;;;8.10;99.90;;;;;;5137907;27;20043;-76
2022/12/23 12:06:01;;;;;;;28.15;12.48;;;8.10;99.90;;;;;;5138244;27;20086;-76
2022/12/23 12:08:34;;;;;;;28.67;13.38;;;8.10;99.90;;;;;;5137821;27;20470;-76
2022/12/23 12:11:13;;;;;;;28.38;13.27;;;8.10;99.90;;;;;;5138243;27;20039;-75
2022/12/23 12:13:41;;;;;;;32.00;13.52;;;8.10;99.90;;;;;;5138198;27;20058;-76
2022/12/23 12:16:21;;;;;;;26.88;12.50;;;8.10;99.90;;;;;;5137769;27;20073;-75
2022/12/23 12:18:49;;;;;;;23.85;11.38;;;8.20;99.90;;;;;;5137702;27;20046;-76
2022/12/23 12:21:19;;;;;;;22.20;9.95;;;8.20;99.90;;;;;;5117430;27;20440;-79
2022/12/23 12:23:49;;;;;;;23.48;10.90;;;8.10;99.90;;;;;;5136001;27;20050;-76
2022/12/23 12:26:25;;;;;;;22.13;9.55;;;8.20;99.90;;;;;;5136944;27;20494;-78
2022/12/23 12:29:01;;;;;;;21.42;9.25;;;8.10;99.90;;;;;;5136653;27;20047;-76
2022/12/23 12:31:41;;;;;;;17.80;8.85;;;8.10;99.90;;;;;;5137139;27;20040;-75
2022/12/23 12:34:29;;;;;;;20.75;10.10;;;8.10;99.90;;;;;;5137113;27;20123;-75
2022/12/23 12:37:16;;;;;;;25.00;10.55;;;8.10;99.90;;;;;;5136130;27;20062;-76
2022/12/23 12:39:55;;;;;;;22.03;10.60;;;8.10;99.90;;;;;;5137286;27;20502;-75
2022/12/23 12:42:36;;;;;;;21.10;11.13;;;8.10;99.90;;;;;;5137139;27;20531;-75
2022/12/23 12:45:16;;;;;;;24.85;11.48;;;8.10;99.90;;;;;;5137366;27;20462;-75
2022/12/23 12:47:51;;;;;;;23.88;11.88;;;8.10;99.90;;;;;;5137457;27;20483;-75
2022/12/23 12:50:22;;;;;;;27.00;13.48;;;8.10;99.90;;;;;;5136689;27;20096;-75
2022/12/23 12:52:51;;;;;;;28.92;13.18;;;8.10;99.90;;;;;;5136672;27;20043;-75
2022/12/23 12:55:25;;;;;;;30.33;13.48;;;8.10;99.90;;;;;;5136434;27;20039;-75
2022/12/23 12:57:51;;;;;;;30.40;13.70;;;8.00;99.90;;;;;;5136526;27;20047;-75
2022/12/23 13:00:21;;;;;;;29.85;13.52;;;8.00;99.90;;;;;;5136519;27;20475;-75
2022/12/23 13:03:30;;;;;;;32.08;13.13;;;8.00;99.90;;;;;;5136819;27;20043;-75
2022/12/23 13:06:02;;;;;;;26.90;12.02;;;8.00;99.90;;;;;;5137084;27;20044;-75
2022/12/23 13:08:45;;;;;;;29.98;12.30;;;8.00;99.90;;;;;;5136660;27;20135;-75
2022/12/23 13:11:29;;;;;;;31.30;12.15;;;8.00;99.90;;;;;;5135471;27;20050;-75
2022/12/23 13:14:08;;;;;;;27.67;11.40;;;8.00;99.90;;;;;;5136040;27;20506;-75
2022/12/23 13:17:11;;;;;;;29.90;11.98;;;8.10;99.90;;;;;;5136181;27;20047;-75
2022/12/23 13:19:54;;;;;;;29.95;12.32;;;7.90;99.90;;;;;;5136064;27;20043;-75
2022/12/23 13:22:32;;;;;;;31.23;11.88;;;7.90;99.90;;;;;;5136173;27;20050;-75
2022/12/23 13:25:07;;;;;;;31.15;13.20;;;8.00;99.90;;;;;;5136904;27;20090;-75